sensor_id;sensor_type;location;lat;lon;timestamp;P1;durP1;ratioP1;P2;durP2;ratioP2
6223;SDS011;3145;42.726;23.342;2023-10-19T00:01:54;25.47;;;19.33;;
6223;SDS011;3145;42.726;23.342;2023-10-19T00:04:20;24.03;;;20.77;;
6223;SDS011;3145;42.726;23.342;2023-10-19T00:06:47;23.40;;;18.37;;
6223;SDS011;3145;42.726;23.342;2023-10-19T00:09:13;22.17;;;18.63;;
6223;SDS011;3145;42.726;23.342;2023-10-19T00:11:41;20.83;;;17.20;;
6223;SDS011;3145;42.726;23.342;2023-10-19T00:14:08;20.43;;;17.80;;
6223;SDS011;3145;42.726;23.342;2023-10-19T00:16:41;21.17;;;17.33;;
6223;SDS011;3145;42.726;23.342;2023-10-19T00:19:09;24.23;;;17.00;;
6223;SDS011;3145;42.726;23.342;2023-10-19T00:21:37;21.70;;;17.43;;
6223;SDS011;3145;42.726;23.342;2023-10-19T00:24:15;21.47;;;17.37;;
6223;SDS011;3145;42.726;23.342;2023-10-19T00:26:44;21.63;;;17.80;;
6223;SDS011;3145;42.726;23.342;2023-10-19T00:29:12;21.27;;;18.00;;
6223;SDS011;3145;42.726;23.342;2023-10-19T00:31:55;22.47;;;17.53;;
6223;SDS011;3145;42.726;23.342;2023-10-19T00:34:22;22.27;;;18.43;;
6223;SDS011;3145;42.726;23.342;2023-10-19T00:36:50;20.40;;;17.20;;
6223;SDS011;3145;42.726;23.342;2023-10-19T00:39:17;19.10;;;16.83;;
6223;SDS011;3145;42.726;23.342;2023-10-19T00:41:47;21.10;;;17.97;;
6223;SDS011;3145;42.726;23.342;2023-10-19T00:44:16;20.57;;;16.97;;
6223;SDS011;3145;42.726;23.342;2023-10-19T00:46:47;21.70;;;16.70;;
6223;SDS011;3145;42.726;23.342;2023-10-19T00:49:25;21.27;;;18.53;;
6223;SDS011;3145;42.726;23.342;2023-10-19T00:51:52;24.07;;;18.70;;
6223;SDS011;3145;42.726;23.342;2023-10-19T00:54:28;20.37;;;16.90;;
6223;SDS011;3145;42.726;23.342;2023-10-19T00:57:00;20.27;;;18.03;;
6223;SDS011;3145;42.726;23.342;2023-10-19T00:59:33;23.30;;;19.83;;
6223;SDS011;3145;42.726;23.342;2023-10-19T01:02:08;18.97;;;16.80;;
6223;SDS011;3145;42.726;23.342;2023-10-19T01:04:45;21.13;;;18.60;;
6223;SDS011;3145;42.726;23.342;2023-10-19T01:07:16;22.93;;;20.10;;
6223;SDS011;3145;42.726;23.342;2023-10-19T01:09:47;23.40;;;18.33;;
6223;SDS011;3145;42.726;23.342;2023-10-19T01:12:18;21.13;;;18.73;;
6223;SDS011;3145;42.726;23.342;2023-10-19T01:15:06;19.97;;;17.83;;
6223;SDS011;3145;42.726;23.342;2023-10-19T01:17:38;23.63;;;18.90;;
6223;SDS011;3145;42.726;23.342;2023-10-19T01:20:07;21.53;;;17.77;;
6223;SDS011;3145;42.726;23.342;2023-10-19T01:22:53;23.30;;;18.27;;
6223;SDS011;3145;42.726;23.342;2023-10-19T01:25:31;19.80;;;17.43;;
6223;SDS011;3145;42.726;23.342;2023-10-19T01:28:02;19.87;;;17.57;;
6223;SDS011;3145;42.726;23.342;2023-10-19T01:30:34;19.77;;;17.77;;
6223;SDS011;3145;42.726;23.342;2023-10-19T01:33:01;22.50;;;18.27;;
6223;SDS011;3145;42.726;23.342;2023-10-19T01:35:29;27.00;;;18.47;;
6223;SDS011;3145;42.726;23.342;2023-10-19T01:38:18;20.03;;;17.90;;
6223;SDS011;3145;42.726;23.342;2023-10-19T01:40:43;22.07;;;18.37;;
6223;SDS011;3145;42.726;23.342;2023-10-19T01:43:13;26.07;;;19.53;;
6223;SDS011;3145;42.726;23.342;2023-10-19T01:45:45;22.33;;;19.93;;
6223;SDS011;3145;42.726;23.342;2023-10-19T01:48:12;22.10;;;18.37;;
6223;SDS011;3145;42.726;23.342;2023-10-19T01:50:38;20.07;;;18.00;;
6223;SDS011;3145;42.726;23.342;2023-10-19T01:53:05;23.27;;;19.10;;
6223;SDS011;3145;42.726;23.342;2023-10-19T01:55:41;28.23;;;20.47;;
6223;SDS011;3145;42.726;23.342;2023-10-19T01:58:08;23.73;;;18.90;;
6223;SDS011;3145;42.726;23.342;2023-10-19T02:00:35;25.30;;;19.07;;
6223;SDS011;3145;42.726;23.342;2023-10-19T02:03:06;20.80;;;18.60;;
6223;SDS011;3145;42.726;23.342;2023-10-19T02:05:32;20.47;;;17.50;;
6223;SDS011;3145;42.726;23.342;2023-10-19T02:08:05;21.77;;;18.00;;
6223;SDS011;3145;42.726;23.342;2023-10-19T02:10:32;22.17;;;18.57;;
6223;SDS011;3145;42.726;23.342;2023-10-19T02:13:01;21.83;;;18.27;;
6223;SDS011;3145;42.726;23.342;2023-10-19T02:15:31;21.87;;;18.33;;
6223;SDS011;3145;42.726;23.342;2023-10-19T02:18:00;21.17;;;18.97;;
6223;SDS011;3145;42.726;23.342;2023-10-19T02:20:27;23.83;;;18.90;;
6223;SDS011;3145;42.726;23.342;2023-10-19T02:22:54;21.20;;;18.83;;
6223;SDS011;3145;42.726;23.342;2023-10-19T02:25:22;22.53;;;18.20;;
6223;SDS011;3145;42.726;23.342;2023-10-19T02:27:50;21.17;;;18.50;;
6223;SDS011;3145;42.726;23.342;2023-10-19T02:30:18;21.37;;;19.07;;
6223;SDS011;3145;42.726;23.342;2023-10-19T02:32:45;24.20;;;19.43;;
6223;SDS011;3145;42.726;23.342;2023-10-19T02:35:12;24.67;;;19.73;;
6223;SDS011;3145;42.726;23.342;2023-10-19T02:37:40;22.40;;;19.57;;
6223;SDS011;3145;42.726;23.342;2023-10-19T02:40:06;21.13;;;18.90;;
6223;SDS011;3145;42.726;23.342;2023-10-19T02:42:44;20.30;;;18.17;;
6223;SDS011;3145;42.726;23.342;2023-10-19T02:45:14;20.50;;;18.10;;
6223;SDS011;3145;42.726;23.342;2023-10-19T02:47:44;22.27;;;18.87;;
6223;SDS011;3145;42.726;23.342;2023-10-19T02:50:10;22.70;;;18.43;;
6223;SDS011;3145;42.726;23.342;2023-10-19T02:52:39;22.27;;;18.27;;
6223;SDS011;3145;42.726;23.342;2023-10-19T02:55:06;23.67;;;18.83;;
6223;SDS011;3145;42.726;23.342;2023-10-19T02:57:34;24.37;;;18.40;;
6223;SDS011;3145;42.726;23.342;2023-10-19T03:00:00;21.63;;;18.27;;
6223;SDS011;3145;42.726;23.342;2023-10-19T03:02:33;21.13;;;18.87;;
6223;SDS011;3145;42.726;23.342;2023-10-19T03:05:00;23.10;;;19.47;;
6223;SDS011;3145;42.726;23.342;2023-10-19T03:07:36;29.63;;;23.10;;
6223;SDS011;3145;42.726;23.342;2023-10-19T03:10:04;31.07;;;22.33;;
6223;SDS011;3145;42.726;23.342;2023-10-19T03:12:32;32.77;;;23.73;;
6223;SDS011;3145;42.726;23.342;2023-10-19T03:14:58;34.97;;;24.37;;
6223;SDS011;3145;42.726;23.342;2023-10-19T03:17:25;31.37;;;23.33;;
6223;SDS011;3145;42.726;23.342;2023-10-19T03:19:53;31.23;;;22.00;;
6223;SDS011;3145;42.726;23.342;2023-10-19T03:22:22;30.43;;;22.20;;
6223;SDS011;3145;42.726;23.342;2023-10-19T03:24:47;32.50;;;23.17;;
6223;SDS011;3145;42.726;23.342;2023-10-19T03:27:23;28.50;;;21.63;;
6223;SDS011;3145;42.726;23.342;2023-10-19T03:29:49;46.00;;;23.97;;
6223;SDS011;3145;42.726;23.342;2023-10-19T03:32:20;62.80;;;24.00;;
6223;SDS011;3145;42.726;23.342;2023-10-19T03:34:51;112.30;;;26.53;;
6223;SDS011;3145;42.726;23.342;2023-10-19T03:37:22;121.50;;;25.57;;
6223;SDS011;3145;42.726;23.342;2023-10-19T03:39:50;107.47;;;24.60;;
6223;SDS011;3145;42.726;23.342;2023-10-19T03:42:17;95.70;;;24.77;;
6223;SDS011;3145;42.726;23.342;2023-10-19T03:44:46;149.43;;;24.40;;
6223;SDS011;3145;42.726;23.342;2023-10-19T03:47:18;100.07;;;20.27;;
6223;SDS011;3145;42.726;23.342;2023-10-19T03:49:46;81.87;;;19.43;;
6223;SDS011;3145;42.726;23.342;2023-10-19T03:52:13;53.20;;;19.23;;
6223;SDS011;3145;42.726;23.342;2023-10-19T03:54:48;177.13;;;22.93;;
6223;SDS011;3145;42.726;23.342;2023-10-19T03:57:15;86.00;;;20.50;;
6223;SDS011;3145;42.726;23.342;2023-10-19T03:59:47;108.80;;;20.80;;
6223;SDS011;3145;42.726;23.342;2023-10-19T04:02:17;35.97;;;21.00;;
6223;SDS011;3145;42.726;23.342;2023-10-19T04:04:45;55.87;;;21.67;;
6223;SDS011;3145;42.726;23.342;2023-10-19T04:07:13;45.20;;;21.13;;
6223;SDS011;3145;42.726;23.342;2023-10-19T04:09:46;74.27;;;20.77;;
6223;SDS011;3145;42.726;23.342;2023-10-19T04:12:24;44.30;;;21.07;;
6223;SDS011;3145;42.726;23.342;2023-10-19T04:14:54;55.83;;;28.07;;
6223;SDS011;3145;42.726;23.342;2023-10-19T04:17:21;55.73;;;24.60;;
6223;SDS011;3145;42.726;23.342;2023-10-19T04:19:49;52.23;;;24.07;;
6223;SDS011;3145;42.726;23.342;2023-10-19T04:22:20;48.60;;;23.90;;
6223;SDS011;3145;42.726;23.342;2023-10-19T04:24:51;60.37;;;23.37;;
6223;SDS011;3145;42.726;23.342;2023-10-19T04:27:18;50.83;;;23.80;;
6223;SDS011;3145;42.726;23.342;2023-10-19T04:29:48;39.00;;;22.57;;
6223;SDS011;3145;42.726;23.342;2023-10-19T04:32:15;40.50;;;23.30;;
6223;SDS011;3145;42.726;23.342;2023-10-19T04:34:50;40.57;;;24.77;;
6223;SDS011;3145;42.726;23.342;2023-10-19T04:37:16;44.57;;;23.70;;
6223;SDS011;3145;42.726;23.342;2023-10-19T04:39:44;43.27;;;23.50;;
6223;SDS011;3145;42.726;23.342;2023-10-19T04:42:12;67.50;;;26.80;;
6223;SDS011;3145;42.726;23.342;2023-10-19T04:44:39;85.90;;;23.70;;
6223;SDS011;3145;42.726;23.342;2023-10-19T04:47:06;66.67;;;24.10;;
6223;SDS011;3145;42.726;23.342;2023-10-19T04:49:33;47.13;;;25.43;;
6223;SDS011;3145;42.726;23.342;2023-10-19T04:51:59;43.60;;;23.30;;
6223;SDS011;3145;42.726;23.342;2023-10-19T04:54:28;32.57;;;22.90;;
6223;SDS011;3145;42.726;23.342;2023-10-19T04:56:55;31.77;;;21.83;;
6223;SDS011;3145;42.726;23.342;2023-10-19T04:59:23;31.50;;;20.53;;
6223;SDS011;3145;42.726;23.342;2023-10-19T05:01:49;26.93;;;20.70;;
6223;SDS011;3145;42.726;23.342;2023-10-19T05:04:16;25.33;;;21.07;;
6223;SDS011;3145;42.726;23.342;2023-10-19T05:06:43;22.80;;;19.77;;
6223;SDS011;3145;42.726;23.342;2023-10-19T05:09:10;30.00;;;19.90;;
6223;SDS011;3145;42.726;23.342;2023-10-19T05:11:37;27.13;;;20.90;;
6223;SDS011;3145;42.726;23.342;2023-10-19T05:14:04;25.70;;;21.90;;
6223;SDS011;3145;42.726;23.342;2023-10-19T05:16:32;32.63;;;21.10;;
6223;SDS011;3145;42.726;23.342;2023-10-19T05:18:59;29.70;;;21.17;;
6223;SDS011;3145;42.726;23.342;2023-10-19T05:21:26;30.23;;;21.33;;
6223;SDS011;3145;42.726;23.342;2023-10-19T05:23:55;42.90;;;27.93;;
6223;SDS011;3145;42.726;23.342;2023-10-19T05:26:22;82.67;;;24.17;;
6223;SDS011;3145;42.726;23.342;2023-10-19T05:28:48;110.60;;;29.90;;
6223;SDS011;3145;42.726;23.342;2023-10-19T05:31:15;118.20;;;34.50;;
6223;SDS011;3145;42.726;23.342;2023-10-19T05:33:43;124.00;;;30.57;;
6223;SDS011;3145;42.726;23.342;2023-10-19T05:36:13;116.27;;;30.03;;
6223;SDS011;3145;42.726;23.342;2023-10-19T05:38:40;80.07;;;30.80;;
6223;SDS011;3145;42.726;23.342;2023-10-19T05:41:07;81.93;;;28.50;;
6223;SDS011;3145;42.726;23.342;2023-10-19T05:43:34;45.63;;;24.10;;
6223;SDS011;3145;42.726;23.342;2023-10-19T05:46:00;63.77;;;26.00;;
6223;SDS011;3145;42.726;23.342;2023-10-19T05:48:27;38.40;;;26.00;;
6223;SDS011;3145;42.726;23.342;2023-10-19T05:50:55;36.53;;;25.60;;
6223;SDS011;3145;42.726;23.342;2023-10-19T05:53:22;49.60;;;29.67;;
6223;SDS011;3145;42.726;23.342;2023-10-19T05:55:49;42.63;;;29.00;;
6223;SDS011;3145;42.726;23.342;2023-10-19T05:58:15;49.60;;;32.53;;
6223;SDS011;3145;42.726;23.342;2023-10-19T06:00:42;34.93;;;26.77;;
6223;SDS011;3145;42.726;23.342;2023-10-19T06:03:09;30.07;;;23.70;;
6223;SDS011;3145;42.726;23.342;2023-10-19T06:05:36;27.47;;;22.20;;
6223;SDS011;3145;42.726;23.342;2023-10-19T06:08:04;32.37;;;23.00;;
6223;SDS011;3145;42.726;23.342;2023-10-19T06:10:31;32.57;;;21.57;;
6223;SDS011;3145;42.726;23.342;2023-10-19T06:12:58;34.47;;;23.40;;
6223;SDS011;3145;42.726;23.342;2023-10-19T06:15:24;33.40;;;23.60;;
6223;SDS011;3145;42.726;23.342;2023-10-19T06:17:53;32.07;;;23.80;;
6223;SDS011;3145;42.726;23.342;2023-10-19T06:20:20;50.87;;;30.73;;
6223;SDS011;3145;42.726;23.342;2023-10-19T06:22:50;57.27;;;34.97;;
6223;SDS011;3145;42.726;23.342;2023-10-19T06:25:18;60.10;;;37.40;;
6223;SDS011;3145;42.726;23.342;2023-10-19T06:27:46;48.13;;;31.83;;
6223;SDS011;3145;42.726;23.342;2023-10-19T06:30:14;44.03;;;29.13;;
6223;SDS011;3145;42.726;23.342;2023-10-19T06:32:45;59.17;;;37.40;;
6223;SDS011;3145;42.726;23.342;2023-10-19T06:35:13;53.63;;;35.23;;
6223;SDS011;3145;42.726;23.342;2023-10-19T06:37:40;57.53;;;39.40;;
6223;SDS011;3145;42.726;23.342;2023-10-19T06:40:07;53.83;;;37.80;;
6223;SDS011;3145;42.726;23.342;2023-10-19T06:42:37;82.73;;;44.57;;
6223;SDS011;3145;42.726;23.342;2023-10-19T06:45:04;66.67;;;41.80;;
6223;SDS011;3145;42.726;23.342;2023-10-19T06:47:33;59.70;;;38.67;;
6223;SDS011;3145;42.726;23.342;2023-10-19T06:50:02;57.47;;;36.57;;
6223;SDS011;3145;42.726;23.342;2023-10-19T06:52:32;46.33;;;31.30;;
6223;SDS011;3145;42.726;23.342;2023-10-19T06:55:01;55.13;;;32.73;;
6223;SDS011;3145;42.726;23.342;2023-10-19T06:57:29;44.43;;;31.23;;
6223;SDS011;3145;42.726;23.342;2023-10-19T06:59:57;40.47;;;29.10;;
6223;SDS011;3145;42.726;23.342;2023-10-19T07:02:24;43.37;;;29.73;;
6223;SDS011;3145;42.726;23.342;2023-10-19T07:04:51;38.33;;;28.00;;
6223;SDS011;3145;42.726;23.342;2023-10-19T07:07:18;39.23;;;27.83;;
6223;SDS011;3145;42.726;23.342;2023-10-19T07:09:44;35.53;;;26.23;;
6223;SDS011;3145;42.726;23.342;2023-10-19T07:12:11;36.17;;;25.30;;
6223;SDS011;3145;42.726;23.342;2023-10-19T07:14:38;38.83;;;27.23;;
6223;SDS011;3145;42.726;23.342;2023-10-19T07:17:07;37.37;;;26.07;;
6223;SDS011;3145;42.726;23.342;2023-10-19T07:19:34;43.13;;;26.83;;
6223;SDS011;3145;42.726;23.342;2023-10-19T07:22:01;40.17;;;25.27;;
6223;SDS011;3145;42.726;23.342;2023-10-19T07:24:29;35.03;;;25.30;;
6223;SDS011;3145;42.726;23.342;2023-10-19T07:26:57;34.87;;;24.10;;
6223;SDS011;3145;42.726;23.342;2023-10-19T07:29:33;28.07;;;22.13;;
6223;SDS011;3145;42.726;23.342;2023-10-19T07:32:01;22.80;;;19.97;;
6223;SDS011;3145;42.726;23.342;2023-10-19T07:34:32;28.43;;;22.23;;
6223;SDS011;3145;42.726;23.342;2023-10-19T07:36:59;25.67;;;21.47;;
6223;SDS011;3145;42.726;23.342;2023-10-19T07:39:26;22.47;;;18.40;;
6223;SDS011;3145;42.726;23.342;2023-10-19T07:41:55;35.17;;;20.03;;
6223;SDS011;3145;42.726;23.342;2023-10-19T07:44:22;23.63;;;20.53;;
6223;SDS011;3145;42.726;23.342;2023-10-19T07:46:49;24.00;;;20.50;;
6223;SDS011;3145;42.726;23.342;2023-10-19T07:49:16;24.10;;;21.00;;
6223;SDS011;3145;42.726;23.342;2023-10-19T07:51:47;23.60;;;20.23;;
6223;SDS011;3145;42.726;23.342;2023-10-19T07:54:15;25.17;;;20.73;;
6223;SDS011;3145;42.726;23.342;2023-10-19T07:56:41;27.83;;;23.37;;
6223;SDS011;3145;42.726;23.342;2023-10-19T07:59:09;26.73;;;21.83;;
6223;SDS011;3145;42.726;23.342;2023-10-19T08:01:37;26.87;;;21.97;;
6223;SDS011;3145;42.726;23.342;2023-10-19T08:04:04;26.53;;;21.40;;
6223;SDS011;3145;42.726;23.342;2023-10-19T08:06:31;27.30;;;22.30;;
6223;SDS011;3145;42.726;23.342;2023-10-19T08:08:59;29.23;;;22.23;;
6223;SDS011;3145;42.726;23.342;2023-10-19T08:11:26;26.20;;;20.80;;
6223;SDS011;3145;42.726;23.342;2023-10-19T08:13:52;27.80;;;21.23;;
6223;SDS011;3145;42.726;23.342;2023-10-19T08:16:20;24.80;;;20.17;;
6223;SDS011;3145;42.726;23.342;2023-10-19T08:18:47;25.53;;;20.03;;
6223;SDS011;3145;42.726;23.342;2023-10-19T08:21:14;23.37;;;19.87;;
6223;SDS011;3145;42.726;23.342;2023-10-19T08:23:41;21.97;;;19.63;;
6223;SDS011;3145;42.726;23.342;2023-10-19T08:26:11;27.50;;;20.33;;
6223;SDS011;3145;42.726;23.342;2023-10-19T08:28:40;24.80;;;19.67;;
6223;SDS011;3145;42.726;23.342;2023-10-19T08:31:07;26.07;;;19.07;;
6223;SDS011;3145;42.726;23.342;2023-10-19T08:33:35;24.37;;;18.83;;
6223;SDS011;3145;42.726;23.342;2023-10-19T08:36:04;26.13;;;19.20;;
6223;SDS011;3145;42.726;23.342;2023-10-19T08:38:31;20.83;;;18.13;;
6223;SDS011;3145;42.726;23.342;2023-10-19T08:40:58;26.60;;;19.63;;
6223;SDS011;3145;42.726;23.342;2023-10-19T08:43:28;24.23;;;18.77;;
6223;SDS011;3145;42.726;23.342;2023-10-19T08:45:58;23.30;;;19.40;;
6223;SDS011;3145;42.726;23.342;2023-10-19T08:48:26;22.67;;;19.20;;
6223;SDS011;3145;42.726;23.342;2023-10-19T08:50:54;26.00;;;19.90;;
6223;SDS011;3145;42.726;23.342;2023-10-19T08:53:21;23.57;;;17.67;;
6223;SDS011;3145;42.726;23.342;2023-10-19T08:55:50;25.30;;;17.77;;
6223;SDS011;3145;42.726;23.342;2023-10-19T08:58:19;19.90;;;17.07;;
6223;SDS011;3145;42.726;23.342;2023-10-19T09:00:49;22.57;;;17.80;;
6223;SDS011;3145;42.726;23.342;2023-10-19T09:03:19;24.33;;;19.07;;
6223;SDS011;3145;42.726;23.342;2023-10-19T09:05:47;19.73;;;16.70;;
6223;SDS011;3145;42.726;23.342;2023-10-19T09:08:14;14.00;;;12.53;;
6223;SDS011;3145;42.726;23.342;2023-10-19T09:10:43;14.83;;;12.57;;
6223;SDS011;3145;42.726;23.342;2023-10-19T09:13:11;17.40;;;12.77;;
6223;SDS011;3145;42.726;23.342;2023-10-19T09:15:41;13.73;;;12.37;;
6223;SDS011;3145;42.726;23.342;2023-10-19T09:18:15;14.13;;;12.30;;
6223;SDS011;3145;42.726;23.342;2023-10-19T09:20:44;14.97;;;13.37;;
6223;SDS011;3145;42.726;23.342;2023-10-19T09:23:21;13.40;;;11.17;;
6223;SDS011;3145;42.726;23.342;2023-10-19T09:25:50;12.70;;;11.37;;
6223;SDS011;3145;42.726;23.342;2023-10-19T09:28:18;14.03;;;12.67;;
6223;SDS011;3145;42.726;23.342;2023-10-19T09:30:45;13.97;;;12.00;;
6223;SDS011;3145;42.726;23.342;2023-10-19T09:33:13;13.20;;;11.90;;
6223;SDS011;3145;42.726;23.342;2023-10-19T09:35:43;12.73;;;11.43;;
6223;SDS011;3145;42.726;23.342;2023-10-19T09:38:13;13.27;;;10.47;;
6223;SDS011;3145;42.726;23.342;2023-10-19T09:40:40;14.37;;;12.90;;
6223;SDS011;3145;42.726;23.342;2023-10-19T09:43:08;14.10;;;12.60;;
6223;SDS011;3145;42.726;23.342;2023-10-19T09:45:41;12.63;;;11.57;;
6223;SDS011;3145;42.726;23.342;2023-10-19T09:48:08;18.83;;;11.60;;
6223;SDS011;3145;42.726;23.342;2023-10-19T09:50:43;12.73;;;11.47;;
6223;SDS011;3145;42.726;23.342;2023-10-19T09:53:13;15.23;;;12.37;;
6223;SDS011;3145;42.726;23.342;2023-10-19T09:55:40;20.67;;;11.13;;
6223;SDS011;3145;42.726;23.342;2023-10-19T09:58:10;16.47;;;11.33;;
6223;SDS011;3145;42.726;23.342;2023-10-19T10:00:42;11.67;;;10.47;;
6223;SDS011;3145;42.726;23.342;2023-10-19T10:06:14;13.57;;;12.17;;
6223;SDS011;3145;42.726;23.342;2023-10-19T10:08:42;12.80;;;11.43;;
6223;SDS011;3145;42.726;23.342;2023-10-19T10:11:20;13.93;;;12.43;;
6223;SDS011;3145;42.726;23.342;2023-10-19T10:13:48;11.03;;;9.90;;
6223;SDS011;3145;42.726;23.342;2023-10-19T10:16:21;13.23;;;11.27;;
6223;SDS011;3145;42.726;23.342;2023-10-19T10:18:50;11.60;;;10.50;;
6223;SDS011;3145;42.726;23.342;2023-10-19T10:21:22;12.00;;;9.60;;
6223;SDS011;3145;42.726;23.342;2023-10-19T10:23:51;11.60;;;10.17;;
6223;SDS011;3145;42.726;23.342;2023-10-19T10:26:19;10.67;;;9.77;;
6223;SDS011;3145;42.726;23.342;2023-10-19T10:29:08;10.70;;;9.60;;
6223;SDS011;3145;42.726;23.342;2023-10-19T10:31:40;10.50;;;9.50;;
6223;SDS011;3145;42.726;23.342;2023-10-19T10:34:08;10.27;;;9.27;;
6223;SDS011;3145;42.726;23.342;2023-10-19T10:39:27;9.03;;;8.33;;
6223;SDS011;3145;42.726;23.342;2023-10-19T10:41:55;14.07;;;9.00;;
6223;SDS011;3145;42.726;23.342;2023-10-19T10:44:35;9.53;;;8.73;;
6223;SDS011;3145;42.726;23.342;2023-10-19T10:47:03;12.10;;;10.87;;
6223;SDS011;3145;42.726;23.342;2023-10-19T10:49:31;9.90;;;9.00;;
6223;SDS011;3145;42.726;23.342;2023-10-19T10:51:59;8.37;;;7.73;;
6223;SDS011;3145;42.726;23.342;2023-10-19T10:54:26;9.43;;;8.60;;
6223;SDS011;3145;42.726;23.342;2023-10-19T10:56:53;14.23;;;12.70;;
6223;SDS011;3145;42.726;23.342;2023-10-19T10:59:19;12.67;;;11.37;;
6223;SDS011;3145;42.726;23.342;2023-10-19T11:01:46;8.50;;;6.97;;
6223;SDS011;3145;42.726;23.342;2023-10-19T11:04:13;6.80;;;6.30;;
6223;SDS011;3145;42.726;23.342;2023-10-19T11:06:47;7.80;;;7.10;;
6223;SDS011;3145;42.726;23.342;2023-10-19T11:09:16;7.30;;;6.60;;
6223;SDS011;3145;42.726;23.342;2023-10-19T11:11:44;9.10;;;8.27;;
6223;SDS011;3145;42.726;23.342;2023-10-19T11:14:11;8.03;;;7.30;;
6223;SDS011;3145;42.726;23.342;2023-10-19T11:16:38;7.13;;;6.53;;
6223;SDS011;3145;42.726;23.342;2023-10-19T11:19:05;7.40;;;6.70;;
6223;SDS011;3145;42.726;23.342;2023-10-19T11:21:32;8.20;;;7.50;;
6223;SDS011;3145;42.726;23.342;2023-10-19T11:23:59;9.60;;;8.80;;
6223;SDS011;3145;42.726;23.342;2023-10-19T11:26:28;10.70;;;8.60;;
6223;SDS011;3145;42.726;23.342;2023-10-19T11:28:58;10.27;;;8.13;;
6223;SDS011;3145;42.726;23.342;2023-10-19T11:31:26;7.77;;;7.17;;
6223;SDS011;3145;42.726;23.342;2023-10-19T11:34:02;8.17;;;7.30;;
6223;SDS011;3145;42.726;23.342;2023-10-19T11:36:30;9.87;;;7.57;;
6223;SDS011;3145;42.726;23.342;2023-10-19T11:38:56;7.93;;;7.23;;
6223;SDS011;3145;42.726;23.342;2023-10-19T11:41:23;7.40;;;6.63;;
6223;SDS011;3145;42.726;23.342;2023-10-19T11:43:51;8.50;;;6.93;;
6223;SDS011;3145;42.726;23.342;2023-10-19T11:46:18;6.60;;;6.10;;
6223;SDS011;3145;42.726;23.342;2023-10-19T11:48:48;8.00;;;7.30;;
6223;SDS011;3145;42.726;23.342;2023-10-19T11:51:14;7.90;;;7.00;;
6223;SDS011;3145;42.726;23.342;2023-10-19T11:53:41;9.63;;;8.13;;
6223;SDS011;3145;42.726;23.342;2023-10-19T11:56:09;10.60;;;7.90;;
6223;SDS011;3145;42.726;23.342;2023-10-19T11:58:38;10.73;;;9.00;;
6223;SDS011;3145;42.726;23.342;2023-10-19T12:01:08;8.63;;;7.47;;
6223;SDS011;3145;42.726;23.342;2023-10-19T12:03:37;7.47;;;6.90;;
6223;SDS011;3145;42.726;23.342;2023-10-19T12:06:05;8.03;;;7.03;;
6223;SDS011;3145;42.726;23.342;2023-10-19T12:08:32;9.60;;;7.93;;
6223;SDS011;3145;42.726;23.342;2023-10-19T12:10:59;8.67;;;7.97;;
6223;SDS011;3145;42.726;23.342;2023-10-19T12:13:29;7.93;;;6.57;;
6223;SDS011;3145;42.726;23.342;2023-10-19T12:15:56;9.60;;;7.13;;
6223;SDS011;3145;42.726;23.342;2023-10-19T12:18:24;10.10;;;7.30;;
6223;SDS011;3145;42.726;23.342;2023-10-19T12:20:53;10.57;;;7.27;;
6223;SDS011;3145;42.726;23.342;2023-10-19T12:23:22;8.43;;;7.63;;
6223;SDS011;3145;42.726;23.342;2023-10-19T12:25:49;7.40;;;6.87;;
6223;SDS011;3145;42.726;23.342;2023-10-19T12:28:15;7.27;;;6.50;;
6223;SDS011;3145;42.726;23.342;2023-10-19T12:30:42;7.70;;;5.63;;
6223;SDS011;3145;42.726;23.342;2023-10-19T12:33:10;9.47;;;6.70;;
6223;SDS011;3145;42.726;23.342;2023-10-19T12:35:42;8.37;;;6.57;;
6223;SDS011;3145;42.726;23.342;2023-10-19T12:38:13;7.27;;;6.67;;
6223;SDS011;3145;42.726;23.342;2023-10-19T12:40:45;7.87;;;6.90;;
6223;SDS011;3145;42.726;23.342;2023-10-19T12:43:13;7.93;;;6.10;;
6223;SDS011;3145;42.726;23.342;2023-10-19T12:45:40;7.70;;;6.07;;
6223;SDS011;3145;42.726;23.342;2023-10-19T12:48:09;6.50;;;6.00;;
6223;SDS011;3145;42.726;23.342;2023-10-19T12:50:36;6.80;;;6.20;;
6223;SDS011;3145;42.726;23.342;2023-10-19T12:53:05;6.90;;;6.00;;
6223;SDS011;3145;42.726;23.342;2023-10-19T12:55:32;5.83;;;5.43;;
6223;SDS011;3145;42.726;23.342;2023-10-19T12:57:59;8.13;;;6.40;;
6223;SDS011;3145;42.726;23.342;2023-10-19T13:00:32;6.83;;;6.23;;
6223;SDS011;3145;42.726;23.342;2023-10-19T13:03:06;6.80;;;6.30;;
6223;SDS011;3145;42.726;23.342;2023-10-19T13:05:34;7.87;;;6.77;;
6223;SDS011;3145;42.726;23.342;2023-10-19T13:08:02;6.97;;;6.43;;
6223;SDS011;3145;42.726;23.342;2023-10-19T13:10:33;11.33;;;7.47;;
6223;SDS011;3145;42.726;23.342;2023-10-19T13:13:02;9.43;;;8.03;;
6223;SDS011;3145;42.726;23.342;2023-10-19T13:15:31;13.00;;;10.40;;
6223;SDS011;3145;42.726;23.342;2023-10-19T13:17:59;10.93;;;9.20;;
6223;SDS011;3145;42.726;23.342;2023-10-19T13:20:26;10.30;;;8.73;;
6223;SDS011;3145;42.726;23.342;2023-10-19T13:22:58;7.63;;;6.87;;
6223;SDS011;3145;42.726;23.342;2023-10-19T13:25:25;7.00;;;6.40;;
6223;SDS011;3145;42.726;23.342;2023-10-19T13:28:06;6.30;;;5.80;;
6223;SDS011;3145;42.726;23.342;2023-10-19T13:30:38;5.77;;;5.23;;
6223;SDS011;3145;42.726;23.342;2023-10-19T13:33:05;5.80;;;5.07;;
6223;SDS011;3145;42.726;23.342;2023-10-19T13:35:34;6.60;;;6.10;;
6223;SDS011;3145;42.726;23.342;2023-10-19T13:38:02;6.53;;;5.90;;
6223;SDS011;3145;42.726;23.342;2023-10-19T13:40:29;8.70;;;5.47;;
6223;SDS011;3145;42.726;23.342;2023-10-19T13:42:56;8.17;;;5.27;;
6223;SDS011;3145;42.726;23.342;2023-10-19T13:45:24;8.10;;;4.93;;
6223;SDS011;3145;42.726;23.342;2023-10-19T13:47:52;10.57;;;4.90;;
6223;SDS011;3145;42.726;23.342;2023-10-19T13:50:21;8.77;;;5.30;;
6223;SDS011;3145;42.726;23.342;2023-10-19T13:52:49;4.77;;;4.17;;
6223;SDS011;3145;42.726;23.342;2023-10-19T13:55:16;13.37;;;4.70;;
6223;SDS011;3145;42.726;23.342;2023-10-19T13:57:44;5.53;;;4.90;;
6223;SDS011;3145;42.726;23.342;2023-10-19T14:00:11;5.40;;;4.30;;
6223;SDS011;3145;42.726;23.342;2023-10-19T14:02:45;4.87;;;4.47;;
6223;SDS011;3145;42.726;23.342;2023-10-19T14:05:13;9.07;;;4.93;;
6223;SDS011;3145;42.726;23.342;2023-10-19T14:07:41;9.37;;;5.77;;
6223;SDS011;3145;42.726;23.342;2023-10-19T14:10:09;9.33;;;5.97;;
6223;SDS011;3145;42.726;23.342;2023-10-19T14:12:38;7.20;;;4.70;;
6223;SDS011;3145;42.726;23.342;2023-10-19T14:15:08;11.97;;;6.13;;
6223;SDS011;3145;42.726;23.342;2023-10-19T14:17:37;5.50;;;4.87;;
6223;SDS011;3145;42.726;23.342;2023-10-19T14:20:06;7.40;;;5.97;;
6223;SDS011;3145;42.726;23.342;2023-10-19T14:22:37;8.27;;;6.00;;
6223;SDS011;3145;42.726;23.342;2023-10-19T14:25:05;14.93;;;8.73;;
6223;SDS011;3145;42.726;23.342;2023-10-19T14:27:33;19.93;;;8.03;;
6223;SDS011;3145;42.726;23.342;2023-10-19T14:30:00;10.40;;;5.53;;
6223;SDS011;3145;42.726;23.342;2023-10-19T14:32:28;5.23;;;4.83;;
6223;SDS011;3145;42.726;23.342;2023-10-19T14:34:55;7.60;;;4.40;;
6223;SDS011;3145;42.726;23.342;2023-10-19T14:37:23;8.13;;;4.37;;
6223;SDS011;3145;42.726;23.342;2023-10-19T14:39:50;6.07;;;5.40;;
6223;SDS011;3145;42.726;23.342;2023-10-19T14:42:17;6.20;;;4.40;;
6223;SDS011;3145;42.726;23.342;2023-10-19T14:44:43;13.53;;;5.70;;
6223;SDS011;3145;42.726;23.342;2023-10-19T14:47:10;7.33;;;6.33;;
6223;SDS011;3145;42.726;23.342;2023-10-19T14:49:38;6.77;;;5.20;;
6223;SDS011;3145;42.726;23.342;2023-10-19T14:52:04;29.43;;;5.73;;
6223;SDS011;3145;42.726;23.342;2023-10-19T14:54:32;18.30;;;6.00;;
6223;SDS011;3145;42.726;23.342;2023-10-19T14:56:59;13.90;;;6.63;;